createdAt,value
2017-10-29T00:02:27.866Z,29.37
2017-10-29T00:04:56.115Z,17.13
2017-10-29T00:07:24.364Z,12.33
2017-10-29T00:09:52.662Z,23.50
2017-10-29T00:12:21.690Z,25.43
2017-10-29T00:14:49.959Z,22.07
2017-10-29T00:17:18.227Z,13.23
2017-10-29T00:19:47.286Z,21.40
2017-10-29T00:22:15.578Z,12.70
2017-10-29T00:24:43.832Z,33.97
2017-10-29T00:27:12.108Z,20.67
2017-10-29T00:29:40.730Z,12.67
2017-10-29T00:32:09.027Z,19.70
2017-10-29T00:34:37.300Z,17.37
2017-10-29T00:37:06.329Z,19.60
2017-10-29T00:39:34.609Z,12.43
2017-10-29T00:42:02.859Z,17.20
2017-10-29T00:44:31.149Z,20.50
2017-10-29T00:46:59.405Z,11.07
2017-10-29T00:49:27.671Z,15.40
2017-10-29T00:51:56.702Z,11.83
2017-10-29T00:54:24.982Z,13.10
2017-10-29T00:56:53.238Z,12.10
2017-10-29T00:59:21.535Z,7.90
2017-10-29T01:01:49.790Z,8.47
2017-10-29T01:04:18.827Z,12.80
2017-10-29T01:06:47.090Z,5.23
2017-10-29T01:09:16.262Z,3.50
2017-10-29T01:11:44.534Z,6.73
2017-10-29T01:14:12.814Z,8.10
2017-10-29T01:16:41.829Z,7.60
2017-10-29T01:19:10.106Z,10.33
2017-10-29T01:21:39.138Z,5.93
2017-10-29T01:24:07.500Z,4.67
2017-10-29T01:26:35.750Z,7.30
2017-10-29T01:29:04.041Z,5.63
2017-10-29T01:31:32.268Z,9.20
2017-10-29T01:34:01.270Z,4.03
2017-10-29T01:36:29.648Z,5.53
2017-10-29T01:38:58.671Z,7.90
2017-10-29T01:41:27.659Z,19.03
2017-10-29T01:43:55.918Z,8.77
2017-10-29T01:46:25.544Z,5.20
2017-10-29T01:48:53.802Z,5.43
2017-10-29T01:51:22.069Z,7.53
2017-10-29T01:53:51.192Z,5.20
2017-10-29T01:56:19.391Z,10.67
2017-10-29T01:58:47.639Z,4.67
2017-10-29T02:01:16.667Z,5.73
2017-10-29T02:03:44.916Z,6.00
2017-10-29T02:06:13.931Z,11.40
2017-10-29T02:08:42.160Z,7.23
2017-10-29T02:11:10.434Z,7.67
2017-10-29T02:13:38.674Z,6.10
2017-10-29T02:16:06.896Z,11.63
2017-10-29T02:18:35.926Z,8.20
2017-10-29T02:21:04.153Z,6.93
2017-10-29T02:23:32.410Z,8.47
2017-10-29T02:26:00.650Z,4.27
2017-10-29T02:28:28.903Z,5.10
2017-10-29T02:30:57.893Z,3.30
2017-10-29T02:33:26.143Z,3.70
2017-10-29T02:35:54.397Z,3.77
2017-10-29T02:38:22.619Z,4.30
2017-10-29T02:40:50.882Z,2.40
2017-10-29T02:43:19.126Z,2.97
2017-10-29T02:45:48.184Z,3.83
2017-10-29T02:48:17.205Z,14.03
2017-10-29T02:50:45.471Z,6.40
2017-10-29T02:53:14.484Z,4.67
2017-10-29T02:55:42.731Z,6.70
2017-10-29T02:58:11.412Z,10.20
2017-10-29T03:00:39.661Z,8.57
2017-10-29T03:03:07.879Z,6.83
2017-10-29T03:05:36.136Z,6.23
2017-10-29T03:08:05.180Z,5.30
2017-10-29T03:10:33.426Z,9.20
2017-10-29T03:13:01.701Z,6.30
2017-10-29T03:15:30.698Z,7.90
2017-10-29T03:17:59.718Z,10.37
2017-10-29T03:20:27.992Z,11.87
2017-10-29T03:22:56.258Z,5.40
2017-10-29T03:25:24.523Z,7.63
2017-10-29T03:27:53.513Z,10.87
2017-10-29T03:30:22.531Z,8.30
2017-10-29T03:32:50.781Z,11.50
2017-10-29T03:35:19.786Z,6.70
2017-10-29T03:37:48.015Z,19.47
2017-10-29T03:40:16.269Z,12.63
2017-10-29T03:42:44.556Z,17.57
2017-10-29T03:45:12.812Z,15.60
2017-10-29T03:47:41.058Z,12.63
2017-10-29T03:50:10.043Z,21.63
2017-10-29T03:52:39.347Z,19.47
2017-10-29T03:55:07.572Z,11.50
2017-10-29T03:57:35.839Z,18.13
2017-10-29T04:00:04.072Z,18.23
2017-10-29T04:02:32.353Z,13.07
2017-10-29T04:05:01.403Z,9.70
2017-10-29T04:07:29.618Z,7.20
2017-10-29T04:09:57.866Z,6.83
2017-10-29T04:12:26.110Z,13.83
2017-10-29T04:14:55.295Z,12.93
2017-10-29T04:17:24.296Z,15.80
2017-10-29T04:19:52.562Z,22.20
2017-10-29T04:22:21.554Z,20.27
2017-10-29T04:24:50.564Z,12.73
2017-10-29T04:27:18.839Z,27.40
2017-10-29T04:29:47.824Z,13.07
2017-10-29T04:32:16.826Z,19.90
2017-10-29T04:34:45.855Z,15.77
2017-10-29T04:37:14.095Z,17.17
2017-10-29T04:39:43.107Z,18.00
2017-10-29T04:42:11.339Z,24.83
2017-10-29T04:44:39.571Z,17.63
2017-10-29T04:47:07.837Z,18.63
2017-10-29T04:49:36.080Z,33.90
2017-10-29T04:52:05.077Z,23.40
2017-10-29T04:54:34.200Z,22.80
2017-10-29T04:57:03.196Z,16.63
2017-10-29T04:59:32.198Z,49.60
2017-10-29T05:02:00.447Z,16.53
2017-10-29T05:04:29.488Z,21.87
2017-10-29T05:06:57.730Z,35.87
2017-10-29T05:09:25.978Z,31.40
2017-10-29T05:11:54.227Z,22.20
2017-10-29T05:14:22.453Z,26.47
2017-10-29T05:16:51.487Z,22.13
2017-10-29T05:19:19.742Z,38.10
2017-10-29T05:21:47.998Z,33.13
2017-10-29T05:24:17.026Z,42.83
2017-10-29T05:26:45.289Z,47.37
2017-10-29T05:29:13.564Z,21.97
2017-10-29T05:31:41.916Z,25.07
2017-10-29T05:34:10.144Z,23.93
2017-10-29T05:36:38.406Z,40.73
2017-10-29T05:39:06.643Z,32.10
2017-10-29T05:41:34.868Z,24.67
2017-10-29T05:44:03.114Z,30.57
2017-10-29T05:46:31.367Z,29.23
2017-10-29T05:48:59.619Z,40.97
2017-10-29T05:51:27.881Z,33.57
2017-10-29T05:53:56.145Z,38.13
2017-10-29T05:56:24.405Z,39.53
2017-10-29T05:58:53.434Z,36.00
2017-10-29T06:01:21.670Z,45.43
2017-10-29T06:03:50.690Z,26.93
2017-10-29T06:06:18.932Z,54.40
2017-10-29T06:08:47.293Z,27.40
2017-10-29T06:11:15.539Z,31.80
2017-10-29T06:13:43.782Z,38.10
2017-10-29T06:16:12.828Z,33.30
2017-10-29T06:18:41.085Z,31.93
2017-10-29T06:21:09.319Z,49.10
2017-10-29T06:23:38.345Z,58.63
2017-10-29T06:26:06.659Z,62.87
2017-10-29T06:28:34.876Z,33.90
2017-10-29T06:31:03.129Z,34.03
2017-10-29T06:33:32.167Z,36.60
2017-10-29T06:36:00.456Z,29.57
2017-10-29T06:38:28.701Z,38.87
2017-10-29T06:40:56.947Z,52.50
2017-10-29T06:43:25.215Z,52.57
2017-10-29T06:45:53.448Z,50.07
2017-10-29T06:48:21.714Z,52.87
2017-10-29T06:50:50.698Z,32.83
2017-10-29T06:53:19.711Z,48.67
2017-10-29T06:55:47.971Z,65.57
2017-10-29T06:58:17.007Z,51.13
2017-10-29T07:00:45.335Z,45.03
2017-10-29T07:03:14.351Z,30.13
2017-10-29T07:05:43.346Z,45.60
2017-10-29T07:08:11.587Z,29.97
2017-10-29T07:10:39.848Z,40.97
2017-10-29T07:13:08.114Z,42.30
2017-10-29T07:15:36.360Z,41.33
2017-10-29T07:18:04.602Z,43.70
2017-10-29T07:20:33.634Z,41.20
2017-10-29T07:23:01.892Z,34.40
2017-10-29T07:25:30.912Z,46.07
2017-10-29T07:27:59.195Z,49.27
2017-10-29T07:30:27.491Z,57.93
2017-10-29T07:32:55.749Z,43.60
2017-10-29T07:35:23.989Z,55.97
2017-10-29T07:37:53.026Z,49.50
2017-10-29T07:40:21.262Z,50.70
2017-10-29T07:42:50.309Z,67.73
2017-10-29T07:45:18.584Z,60.47
2017-10-29T07:47:47.382Z,34.60
2017-10-29T07:50:15.636Z,56.17
2017-10-29T07:52:44.146Z,54.47
2017-10-29T07:55:12.391Z,46.33
2017-10-29T07:57:40.635Z,68.47
2017-10-29T08:00:09.676Z,46.17
2017-10-29T08:02:37.966Z,35.00
2017-10-29T08:05:06.227Z,42.97
2017-10-29T08:07:34.533Z,37.27
2017-10-29T08:10:02.758Z,66.83
2017-10-29T08:12:32.044Z,42.20
2017-10-29T08:15:01.235Z,40.30
2017-10-29T08:17:30.276Z,36.47
2017-10-29T08:19:58.532Z,31.20
2017-10-29T08:22:27.593Z,47.37
2017-10-29T08:24:55.817Z,41.17
2017-10-29T08:27:24.125Z,39.53
2017-10-29T08:29:52.379Z,44.00
2017-10-29T08:32:20.986Z,43.73
2017-10-29T08:34:49.218Z,45.30
2017-10-29T08:37:18.222Z,36.80
2017-10-29T08:39:47.234Z,46.77
2017-10-29T08:42:15.498Z,40.23
2017-10-29T08:44:43.760Z,39.53
2017-10-29T08:47:12.797Z,25.83
2017-10-29T08:49:41.027Z,33.60
2017-10-29T08:52:10.057Z,39.73
2017-10-29T08:54:38.317Z,52.20
2017-10-29T08:57:06.575Z,44.30
2017-10-29T08:59:35.675Z,34.73
2017-10-29T09:02:05.638Z,28.13
2017-10-29T09:04:33.880Z,40.57
2017-10-29T09:07:02.914Z,56.60
2017-10-29T09:09:31.187Z,37.13
2017-10-29T09:11:59.455Z,35.60
2017-10-29T09:14:27.727Z,42.00
2017-10-29T09:16:55.950Z,34.53
2017-10-29T09:19:24.190Z,33.50
2017-10-29T09:21:52.502Z,39.03
2017-10-29T09:24:22.105Z,45.43
2017-10-29T09:26:50.347Z,38.93
2017-10-29T09:29:18.628Z,33.40
2017-10-29T09:31:46.868Z,62.33
2017-10-29T09:34:15.417Z,30.67
2017-10-29T09:36:44.020Z,41.60
2017-10-29T09:39:13.205Z,47.80
2017-10-29T09:41:41.445Z,38.97
2017-10-29T09:44:09.982Z,34.40
2017-10-29T09:46:38.346Z,37.97
2017-10-29T09:49:06.602Z,32.53
2017-10-29T09:51:36.026Z,28.10
2017-10-29T09:54:04.279Z,49.57
2017-10-29T09:56:32.528Z,37.00
2017-10-29T09:59:00.839Z,53.10
2017-10-29T10:01:29.122Z,31.30
2017-10-29T10:03:57.376Z,38.80
2017-10-29T10:06:25.647Z,28.10
2017-10-29T10:08:53.938Z,45.87
2017-10-29T10:11:22.218Z,36.70
2017-10-29T10:13:50.599Z,16.50
2017-10-29T10:16:18.919Z,29.53
2017-10-29T10:18:47.940Z,37.93
2017-10-29T10:21:16.251Z,44.63
2017-10-29T10:23:44.510Z,47.43
2017-10-29T10:26:12.790Z,45.80
2017-10-29T10:28:41.043Z,23.10
2017-10-29T10:31:10.079Z,31.73
2017-10-29T10:33:38.348Z,37.03
2017-10-29T10:36:06.620Z,24.20
2017-10-29T10:38:34.891Z,24.23
2017-10-29T10:41:03.308Z,33.93
2017-10-29T10:43:31.576Z,28.40
2017-10-29T10:45:59.882Z,30.40
2017-10-29T10:48:28.110Z,32.00
2017-10-29T10:50:56.374Z,44.13
2017-10-29T10:53:24.668Z,36.13
2017-10-29T10:55:52.908Z,37.23
2017-10-29T10:58:21.960Z,19.30
2017-10-29T11:00:50.212Z,34.73
2017-10-29T11:03:18.481Z,32.33
2017-10-29T11:05:46.758Z,41.00
2017-10-29T11:08:15.012Z,49.63
2017-10-29T11:10:44.067Z,32.33
2017-10-29T11:13:12.346Z,35.13
2017-10-29T11:15:40.564Z,46.30
2017-10-29T11:18:08.885Z,35.23
2017-10-29T11:20:38.114Z,42.40
2017-10-29T11:23:06.405Z,27.77
2017-10-29T11:25:34.699Z,32.47
2017-10-29T11:28:02.931Z,26.27
2017-10-29T11:30:31.208Z,22.93
2017-10-29T11:32:59.447Z,25.83
2017-10-29T11:35:27.721Z,31.27
2017-10-29T11:37:56.050Z,16.70
2017-10-29T11:40:24.304Z,28.40
2017-10-29T11:42:52.536Z,33.80
2017-10-29T11:45:21.667Z,32.93
2017-10-29T11:47:49.909Z,31.00
2017-10-29T11:50:18.950Z,24.20
2017-10-29T11:52:47.243Z,37.53
2017-10-29T11:55:15.603Z,33.37
2017-10-29T11:57:43.842Z,36.30
2017-10-29T12:00:12.261Z,23.90
2017-10-29T12:02:40.527Z,23.53
2017-10-29T12:05:08.794Z,43.50
2017-10-29T12:07:37.040Z,31.60
2017-10-29T12:10:05.314Z,24.57
2017-10-29T12:12:33.597Z,33.60
2017-10-29T12:15:02.610Z,22.80
2017-10-29T12:17:30.870Z,31.43
2017-10-29T12:19:59.934Z,33.40
2017-10-29T12:22:28.185Z,18.30
2017-10-29T12:24:56.475Z,39.17
2017-10-29T12:27:24.724Z,33.63
2017-10-29T12:29:53.030Z,21.80
2017-10-29T12:32:21.753Z,19.60
2017-10-29T12:34:50.031Z,34.17
2017-10-29T12:37:18.318Z,23.40
2017-10-29T12:39:46.791Z,30.40
2017-10-29T12:42:15.070Z,22.03
2017-10-29T12:44:43.301Z,25.63
2017-10-29T12:47:11.559Z,48.20
2017-10-29T12:49:39.828Z,26.67
2017-10-29T12:52:08.089Z,23.30
2017-10-29T12:54:37.128Z,18.90
2017-10-29T12:57:05.402Z,39.43
2017-10-29T12:59:33.662Z,25.17
2017-10-29T13:02:01.941Z,16.20
2017-10-29T13:04:30.200Z,19.83
2017-10-29T13:06:58.489Z,20.37
2017-10-29T13:09:26.758Z,34.30
2017-10-29T13:11:55.052Z,48.20
2017-10-29T13:14:23.370Z,21.83
2017-10-29T13:16:51.707Z,13.63
2017-10-29T13:19:19.987Z,26.70
2017-10-29T13:21:48.301Z,34.93
2017-10-29T13:24:17.698Z,26.30
2017-10-29T13:26:46.013Z,27.67
2017-10-29T13:29:14.391Z,19.37
2017-10-29T13:31:42.663Z,24.93
2017-10-29T13:34:10.987Z,27.63
2017-10-29T13:36:39.240Z,15.63
2017-10-29T13:39:07.536Z,17.33
2017-10-29T13:41:35.948Z,19.67
2017-10-29T13:44:04.189Z,17.33
2017-10-29T13:46:32.569Z,23.53
2017-10-29T13:49:00.878Z,28.10
2017-10-29T13:51:29.137Z,20.90
2017-10-29T13:53:57.383Z,13.93
2017-10-29T13:56:26.453Z,31.63
2017-10-29T13:58:54.717Z,29.53
2017-10-29T14:01:22.989Z,19.87
2017-10-29T14:03:51.344Z,25.80
2017-10-29T14:06:19.619Z,21.63
2017-10-29T14:08:47.927Z,21.13
2017-10-29T14:11:16.215Z,16.63
2017-10-29T14:13:44.515Z,11.50
2017-10-29T14:16:12.924Z,23.17
2017-10-29T14:18:41.172Z,32.87
2017-10-29T14:21:09.442Z,24.93
2017-10-29T14:23:37.723Z,19.97
2017-10-29T14:26:05.963Z,35.27
2017-10-29T14:28:34.221Z,20.00
2017-10-29T14:31:02.467Z,24.53
2017-10-29T14:33:31.428Z,18.63
2017-10-29T14:35:59.701Z,17.70
2017-10-29T14:38:27.995Z,17.13
2017-10-29T14:40:56.921Z,18.80
2017-10-29T14:43:26.288Z,21.83
2017-10-29T14:45:54.530Z,29.77
2017-10-29T14:48:22.807Z,30.63
2017-10-29T14:50:51.084Z,19.80
2017-10-29T14:53:19.380Z,29.53
2017-10-29T14:55:47.668Z,27.33
2017-10-29T14:58:15.963Z,22.43
2017-10-29T15:00:45.156Z,21.87
2017-10-29T15:03:13.422Z,27.43
2017-10-29T15:05:42.206Z,24.33
2017-10-29T15:08:10.472Z,10.53
2017-10-29T15:10:38.712Z,16.53
2017-10-29T15:13:07.001Z,15.83
2017-10-29T15:15:35.280Z,29.93
2017-10-29T15:18:03.551Z,18.00
2017-10-29T15:20:31.822Z,31.87
2017-10-29T15:23:00.867Z,14.10
2017-10-29T15:25:29.733Z,21.53
2017-10-29T15:27:57.994Z,27.00
2017-10-29T15:30:26.272Z,27.40
2017-10-29T15:32:55.526Z,18.00
2017-10-29T15:35:23.946Z,19.53
2017-10-29T15:37:53.122Z,12.23
2017-10-29T15:40:22.194Z,18.23
2017-10-29T15:42:50.472Z,14.73
2017-10-29T15:45:18.830Z,17.00
2017-10-29T15:47:47.790Z,21.20
2017-10-29T15:50:16.854Z,22.27
2017-10-29T15:52:46.692Z,27.83
2017-10-29T15:55:15.774Z,21.10
2017-10-29T15:57:45.406Z,23.77
2017-10-29T16:00:16.946Z,14.83
2017-10-29T16:02:55.759Z,21.53
2017-10-29T16:05:24.561Z,19.03
2017-10-29T16:07:53.245Z,27.10
2017-10-29T16:10:21.725Z,23.10
2017-10-29T16:12:50.315Z,19.80
2017-10-29T16:15:19.616Z,24.20
2017-10-29T16:17:47.879Z,34.30
2017-10-29T16:20:17.096Z,25.20
2017-10-29T16:22:46.179Z,34.40
2017-10-29T16:25:15.257Z,27.10
2017-10-29T16:27:43.512Z,31.33
2017-10-29T16:30:11.818Z,17.10
2017-10-29T16:32:40.137Z,23.93
2017-10-29T16:35:08.469Z,28.23
2017-10-29T16:37:36.742Z,17.70
2017-10-29T16:40:05.030Z,48.53
2017-10-29T16:42:33.299Z,50.80
2017-10-29T16:45:01.568Z,27.27
2017-10-29T16:47:29.860Z,21.73
2017-10-29T16:49:58.269Z,26.30
2017-10-29T16:52:27.300Z,15.50
2017-10-29T16:54:55.551Z,29.43
2017-10-29T16:57:23.788Z,22.70
2017-10-29T16:59:52.043Z,18.00
2017-10-29T17:02:21.006Z,24.63
2017-10-29T17:04:49.257Z,48.60
2017-10-29T17:07:18.253Z,25.90
2017-10-29T17:09:47.312Z,32.07
2017-10-29T17:12:15.568Z,23.03
2017-10-29T17:14:43.836Z,26.07
2017-10-29T17:17:12.109Z,25.07
2017-10-29T17:19:41.100Z,28.53
2017-10-29T17:22:10.395Z,21.03
2017-10-29T17:24:38.669Z,21.73
2017-10-29T17:27:06.987Z,14.27
2017-10-29T17:29:36.153Z,29.23
2017-10-29T17:32:05.148Z,23.27
2017-10-29T17:34:33.415Z,42.53
2017-10-29T17:37:01.694Z,33.73
2017-10-29T17:39:30.728Z,24.33
2017-10-29T17:41:59.003Z,26.87
2017-10-29T17:44:27.264Z,24.37
2017-10-29T17:46:55.527Z,22.60
2017-10-29T17:49:24.538Z,24.27
2017-10-29T17:51:52.800Z,26.37
2017-10-29T17:54:21.080Z,26.87
2017-10-29T17:56:49.410Z,31.50
2017-10-29T17:59:18.856Z,18.83
2017-10-29T18:01:47.424Z,20.20
2017-10-29T18:04:16.451Z,42.50
2017-10-29T18:06:44.728Z,29.87
2017-10-29T18:09:13.368Z,17.67
2017-10-29T18:11:41.678Z,26.87
2017-10-29T18:14:10.717Z,24.23
2017-10-29T18:16:39.006Z,20.23
2017-10-29T18:19:07.252Z,34.97
2017-10-29T18:21:35.523Z,19.73
2017-10-29T18:24:03.792Z,44.13
2017-10-29T18:26:32.036Z,28.10
2017-10-29T18:29:01.108Z,44.63
2017-10-29T18:31:29.694Z,38.87
2017-10-29T18:33:58.642Z,22.03
2017-10-29T18:36:27.716Z,36.67
2017-10-29T18:38:56.062Z,50.27
2017-10-29T18:41:24.322Z,26.43
2017-10-29T18:43:52.597Z,22.67
2017-10-29T18:46:20.967Z,31.10
2017-10-29T18:48:49.277Z,30.67
2017-10-29T18:51:17.599Z,43.93
2017-10-29T18:53:46.590Z,31.10
2017-10-29T18:56:14.878Z,27.50
2017-10-29T18:58:43.413Z,24.23
2017-10-29T19:01:11.720Z,44.13
2017-10-29T19:03:40.751Z,29.77
2017-10-29T19:06:09.183Z,35.77
2017-10-29T19:08:38.259Z,21.07
2017-10-29T19:11:06.732Z,33.10
2017-10-29T19:13:35.923Z,33.37
2017-10-29T19:16:04.181Z,64.23
2017-10-29T19:18:32.482Z,28.73
2017-10-29T19:21:00.767Z,28.17
2017-10-29T19:23:29.082Z,55.30
2017-10-29T19:25:57.354Z,25.23
2017-10-29T19:28:26.371Z,28.47
2017-10-29T19:30:54.692Z,33.07
2017-10-29T19:33:23.144Z,27.83
2017-10-29T19:35:51.593Z,36.97
2017-10-29T19:38:20.641Z,34.90
2017-10-29T19:40:48.942Z,28.90
2017-10-29T19:43:17.219Z,23.67
2017-10-29T19:45:45.469Z,34.13
2017-10-29T19:48:13.777Z,31.87
2017-10-29T19:50:42.070Z,46.63
2017-10-29T19:53:10.326Z,27.87
2017-10-29T19:55:38.624Z,41.90
2017-10-29T19:58:07.682Z,36.00
2017-10-29T20:00:35.973Z,28.67
2017-10-29T20:03:05.115Z,66.77
2017-10-29T20:05:34.148Z,36.20
2017-10-29T20:08:02.485Z,38.77
2017-10-29T20:10:31.245Z,18.80
2017-10-29T20:12:59.551Z,28.47
2017-10-29T20:15:28.623Z,31.83
2017-10-29T20:17:56.902Z,32.63
2017-10-29T20:20:25.954Z,20.70
2017-10-29T20:22:54.244Z,27.50
2017-10-29T20:25:22.522Z,38.13
2017-10-29T20:27:50.865Z,37.90
2017-10-29T20:30:19.135Z,31.60
2017-10-29T20:32:47.396Z,43.87
2017-10-29T20:35:16.576Z,26.60
2017-10-29T20:37:44.827Z,41.00
2017-10-29T20:40:13.177Z,27.93
2017-10-29T20:42:41.427Z,23.40
2017-10-29T20:45:10.469Z,33.93
2017-10-29T20:47:38.758Z,35.63
2017-10-29T20:50:07.016Z,43.40
2017-10-29T20:52:35.315Z,31.10
2017-10-29T20:55:03.583Z,37.73
2017-10-29T20:57:31.843Z,40.93
2017-10-29T21:00:00.090Z,33.70
2017-10-29T21:02:29.900Z,34.13
2017-10-29T21:04:58.988Z,18.70
2017-10-29T21:07:28.046Z,25.70
2017-10-29T21:09:56.337Z,34.20
2017-10-29T21:12:24.625Z,33.33
2017-10-29T21:14:52.885Z,66.87
2017-10-29T21:17:21.146Z,18.53
2017-10-29T21:19:49.660Z,29.10
2017-10-29T21:22:17.963Z,32.00
2017-10-29T21:24:46.333Z,32.43
2017-10-29T21:27:14.584Z,27.43
2017-10-29T21:29:43.335Z,35.93
2017-10-29T21:32:12.369Z,45.30
2017-10-29T21:34:40.629Z,29.93
2017-10-29T21:37:08.920Z,36.73
2017-10-29T21:39:37.159Z,43.47
2017-10-29T21:42:05.496Z,42.53
2017-10-29T21:44:33.771Z,19.67
2017-10-29T21:47:02.049Z,20.60
2017-10-29T21:49:30.294Z,27.23
2017-10-29T21:51:58.585Z,36.83
2017-10-29T21:54:26.873Z,44.60
2017-10-29T21:56:55.127Z,23.33
2017-10-29T21:59:23.439Z,39.30
2017-10-29T22:01:51.679Z,45.57
2017-10-29T22:04:19.958Z,26.13
2017-10-29T22:06:48.235Z,41.73
2017-10-29T22:09:16.479Z,45.40
2017-10-29T22:11:44.745Z,42.77
2017-10-29T22:14:13.779Z,27.60
2017-10-29T22:16:42.050Z,34.90
2017-10-29T22:19:10.323Z,45.50
2017-10-29T22:21:38.570Z,26.73
2017-10-29T22:24:07.622Z,38.90
2017-10-29T22:26:35.898Z,47.57
2017-10-29T22:29:04.123Z,27.37
2017-10-29T22:31:33.164Z,29.00
2017-10-29T22:34:01.420Z,29.67
2017-10-29T22:36:29.669Z,29.17
2017-10-29T22:38:58.684Z,28.43
2017-10-29T22:41:26.956Z,22.47
2017-10-29T22:43:55.975Z,20.53
2017-10-29T22:46:24.227Z,20.90
2017-10-29T22:48:52.528Z,23.70
2017-10-29T22:51:20.752Z,37.13
2017-10-29T22:53:49.010Z,33.87
2017-10-29T22:56:17.273Z,38.13
2017-10-29T22:58:45.528Z,25.50
2017-10-29T23:01:13.776Z,46.63
2017-10-29T23:03:42.795Z,24.63
2017-10-29T23:06:23.827Z,32.13
2017-10-29T23:08:56.004Z,28.33
2017-10-29T23:11:24.316Z,41.50
2017-10-29T23:13:52.568Z,38.33
2017-10-29T23:16:20.791Z,27.97
2017-10-29T23:18:49.068Z,17.63
2017-10-29T23:21:17.313Z,37.17
2017-10-29T23:23:46.317Z,26.60
2017-10-29T23:26:14.553Z,28.00
2017-10-29T23:28:43.594Z,29.33
2017-10-29T23:31:11.855Z,41.77
2017-10-29T23:33:40.849Z,28.40
2017-10-29T23:36:09.879Z,52.10
2017-10-29T23:38:38.128Z,43.47
2017-10-29T23:41:06.395Z,29.77
2017-10-29T23:43:35.396Z,33.70
2017-10-29T23:46:03.694Z,42.87
2017-10-29T23:48:31.978Z,30.57
2017-10-29T23:51:00.259Z,34.33
2017-10-29T23:53:28.512Z,26.40
2017-10-29T23:55:56.759Z,23.37
2017-10-29T23:58:25.804Z,41.23
